Time;durP1;ratioP1;P1;durP2;ratioP2;P2;SDS_P1;SDS_P2;PMS_P1;PMS_P2;Temp;Humidity;BMP_temperature;BMP_pressure;BME280_temperature;BME280_humidity;BME280_pressure;Samples;Min_cycle;Max_cycle;Signal;HPM_P1;HPM_P2
2022/10/06 00:00:37;;;;;;;2.22;1.02;;;15.50;99.90;;;;;;4985753;28;20219;-66
2022/10/06 00:03:02;;;;;;;6.30;0.95;;;15.40;99.90;;;;;;5014899;28;20215;-67
2022/10/06 00:05:29;;;;;;;2.80;0.50;;;15.30;99.90;;;;;;4992894;28;20660;-66
2022/10/06 00:07:54;;;;;;;5.28;0.93;;;15.30;99.90;;;;;;5006051;28;20226;-66
2022/10/06 00:10:20;;;;;;;4.22;1.50;;;15.20;99.90;;;;;;4990435;28;20183;-66
2022/10/06 00:12:49;;;;;;;2.00;0.82;;;15.30;99.90;;;;;;4993221;28;20200;-67
2022/10/06 00:15:17;;;;;;;1.90;0.95;;;15.30;99.90;;;;;;5010055;28;20569;-67
2022/10/06 00:17:42;;;;;;;1.63;0.60;;;15.30;99.90;;;;;;4982128;28;20192;-66
2022/10/06 00:20:09;;;;;;;3.50;0.75;;;15.30;99.90;;;;;;4990669;28;20198;-66
2022/10/06 00:22:37;;;;;;;3.10;1.42;;;15.20;99.90;;;;;;5014303;28;20191;-66
2022/10/06 00:25:04;;;;;;;1.25;0.65;;;15.10;99.90;;;;;;4997313;28;20183;-67
2022/10/06 00:27:38;;;;;;;4.43;1.17;;;15.00;99.90;;;;;;5008171;28;20219;-66
2022/10/06 00:30:06;;;;;;;1.23;1.17;;;15.00;99.90;;;;;;5012104;28;20194;-66
2022/10/06 00:32:32;;;;;;;4.10;1.77;;;15.00;99.90;;;;;;4996272;28;20648;-66
2022/10/06 00:34:58;;;;;;;6.80;1.25;;;14.90;99.90;;;;;;4994543;28;20198;-67
2022/10/06 00:37:27;;;;;;;0.93;0.68;;;14.90;99.90;;;;;;5003643;28;20688;-68
2022/10/06 00:39:54;;;;;;;8.32;2.20;;;15.00;99.90;;;;;;5000820;28;20199;-70
2022/10/06 00:42:28;;;;;;;4.22;0.95;;;15.00;99.90;;;;;;4992542;28;20184;-69
2022/10/06 00:44:58;;;;;;;4.65;0.90;;;14.90;99.90;;;;;;4979255;28;20202;-67
2022/10/06 00:47:28;;;;;;;2.40;1.00;;;14.80;99.90;;;;;;4998006;28;20227;-67
2022/10/06 00:49:54;;;;;;;1.60;0.85;;;14.80;99.90;;;;;;5008221;28;20183;-67
2022/10/06 00:52:24;;;;;;;3.65;1.67;;;14.80;99.90;;;;;;4997241;28;20183;-67
2022/10/06 00:54:50;;;;;;;3.92;1.55;;;14.80;99.90;;;;;;5001244;28;20187;-67
2022/10/06 00:57:18;;;;;;;1.45;1.20;;;14.90;99.90;;;;;;4988529;28;20250;-67
2022/10/06 00:59:44;;;;;;;2.63;1.42;;;14.70;99.90;;;;;;5006111;28;20229;-70
2022/10/06 01:02:20;;;;;;;2.45;1.23;;;14.70;99.90;;;;;;5009341;28;20537;-67
2022/10/06 01:04:51;;;;;;;3.72;1.38;;;14.60;99.90;;;;;;5005000;28;20180;-66
2022/10/06 01:07:23;;;;;;;5.13;1.33;;;14.70;99.90;;;;;;5007313;28;20305;-67
2022/10/06 01:09:49;;;;;;;6.80;2.55;;;14.60;99.90;;;;;;4993988;28;20187;-67
2022/10/06 01:12:15;;;;;;;8.50;1.27;;;14.70;99.90;;;;;;4989787;28;20199;-67
2022/10/06 01:14:41;;;;;;;0.73;0.55;;;14.70;99.90;;;;;;4963842;28;20211;-65
2022/10/06 01:17:13;;;;;;;3.25;0.90;;;14.60;99.90;;;;;;4985000;28;20226;-68
2022/10/06 01:19:58;;;;;;;2.45;1.30;;;14.50;99.90;;;;;;4992398;28;20184;-67
2022/10/06 01:22:32;;;;;;;6.70;3.05;;;14.60;99.90;;;;;;5002845;28;20191;-67
2022/10/06 01:24:58;;;;;;;5.40;1.48;;;14.50;99.90;;;;;;5014629;28;20261;-66
2022/10/06 01:27:26;;;;;;;4.80;1.83;;;14.40;99.90;;;;;;4997086;28;20680;-67
2022/10/06 01:29:54;;;;;;;2.88;0.70;;;14.40;99.90;;;;;;5013002;28;20245;-67
2022/10/06 01:32:21;;;;;;;6.50;0.85;;;14.40;99.90;;;;;;5005282;28;20191;-66
2022/10/06 01:34:47;;;;;;;6.60;1.63;;;14.40;99.90;;;;;;5005231;28;20611;-68
2022/10/06 01:37:13;;;;;;;10.57;1.42;;;14.50;99.90;;;;;;4991752;28;20192;-67
2022/10/06 01:39:39;;;;;;;7.57;1.08;;;14.50;99.90;;;;;;5003246;28;20191;-68
2022/10/06 01:42:05;;;;;;;3.28;0.90;;;14.40;99.90;;;;;;5008127;28;20192;-66
2022/10/06 01:44:34;;;;;;;11.10;1.52;;;14.20;99.90;;;;;;4984211;28;20238;-68
2022/10/06 01:46:59;;;;;;;1.90;0.95;;;14.30;99.90;;;;;;5010465;28;20223;-67
2022/10/06 01:49:25;;;;;;;4.15;1.70;;;14.30;99.90;;;;;;4997012;28;20199;-68
2022/10/06 01:51:51;;;;;;;3.40;0.63;;;14.20;99.90;;;;;;4979632;28;20198;-66
2022/10/06 01:54:16;;;;;;;6.50;1.25;;;14.10;99.90;;;;;;4982865;28;20199;-67
2022/10/06 01:56:42;;;;;;;8.05;1.55;;;14.20;99.90;;;;;;5000752;28;20237;-67
2022/10/06 01:59:08;;;;;;;6.25;1.45;;;14.20;99.90;;;;;;4978701;28;20282;-66
2022/10/06 02:01:34;;;;;;;6.85;1.27;;;14.20;99.90;;;;;;4994785;28;20199;-67
2022/10/06 02:04:00;;;;;;;4.15;1.25;;;14.20;99.90;;;;;;4969065;28;20191;-67
2022/10/06 02:06:25;;;;;;;7.88;0.93;;;14.10;99.90;;;;;;4993547;28;20194;-67
2022/10/06 02:08:51;;;;;;;11.77;1.98;;;14.10;99.90;;;;;;4970966;28;20194;-68
2022/10/06 02:11:18;;;;;;;7.40;1.42;;;14.00;99.90;;;;;;5012180;28;20206;-68
2022/10/06 02:13:44;;;;;;;4.15;1.23;;;13.90;99.90;;;;;;4973864;28;20675;-68
2022/10/06 02:16:12;;;;;;;3.78;1.05;;;13.90;99.90;;;;;;5002647;28;20267;-68
2022/10/06 02:18:38;;;;;;;2.88;1.08;;;13.90;99.90;;;;;;4993155;28;20645;-67
2022/10/06 02:21:04;;;;;;;4.15;2.00;;;13.80;99.90;;;;;;4988630;28;20192;-67
2022/10/06 02:23:30;;;;;;;5.47;1.23;;;13.80;99.90;;;;;;5001249;28;20179;-67
2022/10/06 02:26:06;;;;;;;7.28;1.00;;;13.80;99.90;;;;;;5007445;28;20188;-68
2022/10/06 02:28:32;;;;;;;3.60;0.95;;;13.90;99.90;;;;;;4995957;28;20219;-67
2022/10/06 02:31:06;;;;;;;4.28;2.13;;;13.80;99.90;;;;;;4994077;28;20211;-67
2022/10/06 02:33:32;;;;;;;2.22;2.03;;;13.60;99.90;;;;;;4994108;28;20652;-67
2022/10/06 02:35:58;;;;;;;4.72;1.27;;;13.60;99.90;;;;;;4979078;28;20196;-67
2022/10/06 02:38:24;;;;;;;3.05;1.17;;;13.60;99.90;;;;;;5002576;28;20238;-68
2022/10/06 02:40:50;;;;;;;11.25;3.30;;;13.60;99.90;;;;;;4974815;28;20195;-70
2022/10/06 02:43:16;;;;;;;3.90;1.17;;;13.60;99.90;;;;;;4990237;28;20192;-66
2022/10/06 02:45:42;;;;;;;5.45;1.77;;;13.50;99.90;;;;;;4984643;28;20569;-67
2022/10/06 02:48:10;;;;;;;11.52;1.63;;;13.40;99.90;;;;;;4995752;28;20219;-67
2022/10/06 02:50:38;;;;;;;3.97;1.52;;;13.40;99.90;;;;;;4984167;28;20287;-67
2022/10/06 02:53:07;;;;;;;8.73;1.23;;;13.30;99.90;;;;;;4999501;28;20521;-66
2022/10/06 02:55:34;;;;;;;3.33;0.70;;;13.40;99.90;;;;;;5001219;28;20274;-67
2022/10/06 02:57:59;;;;;;;3.72;1.85;;;13.40;99.90;;;;;;4983125;28;20196;-66
2022/10/06 03:00:25;;;;;;;5.00;1.52;;;13.30;99.90;;;;;;4995939;28;20195;-67
2022/10/06 03:02:52;;;;;;;3.55;0.93;;;13.30;99.90;;;;;;4990581;28;20207;-67
2022/10/06 03:05:18;;;;;;;2.95;1.08;;;13.30;99.90;;;;;;4996881;28;20520;-67
2022/10/06 03:07:44;;;;;;;8.98;1.27;;;13.40;99.90;;;;;;4965145;28;20269;-68
2022/10/06 03:10:10;;;;;;;4.72;1.88;;;13.40;99.90;;;;;;4993848;28;20192;-67
2022/10/06 03:12:35;;;;;;;4.43;1.02;;;13.40;99.90;;;;;;4996713;28;20267;-66
2022/10/06 03:15:01;;;;;;;5.65;1.38;;;13.40;99.90;;;;;;4978157;28;20192;-67
2022/10/06 03:17:27;;;;;;;4.70;1.50;;;13.40;99.90;;;;;;4982728;28;20207;-66
2022/10/06 03:19:55;;;;;;;3.88;0.85;;;13.40;99.90;;;;;;4980252;28;20203;-67
2022/10/06 03:22:21;;;;;;;3.85;1.00;;;13.40;99.90;;;;;;4978497;28;20191;-67
2022/10/06 03:24:47;;;;;;;8.48;1.60;;;13.40;99.90;;;;;;4983142;28;20191;-67
2022/10/06 03:27:12;;;;;;;5.20;1.02;;;13.30;99.90;;;;;;4982739;28;20221;-67
2022/10/06 03:29:41;;;;;;;5.85;1.25;;;13.20;99.90;;;;;;4989136;28;20179;-67
2022/10/06 03:32:07;;;;;;;1.83;0.70;;;13.10;99.90;;;;;;5000116;28;20199;-67
2022/10/06 03:34:32;;;;;;;7.55;1.48;;;13.10;99.90;;;;;;4969367;28;20188;-66
2022/10/06 03:36:58;;;;;;;2.10;0.95;;;13.10;99.90;;;;;;4991845;28;20191;-67
2022/10/06 03:39:23;;;;;;;7.70;1.55;;;13.10;99.90;;;;;;4990803;28;20195;-67
2022/10/06 03:41:49;;;;;;;4.50;1.45;;;13.10;99.90;;;;;;5014729;28;20191;-67
2022/10/06 03:44:15;;;;;;;2.55;1.02;;;13.10;99.90;;;;;;5007337;28;20214;-67
2022/10/06 03:46:41;;;;;;;6.60;1.20;;;13.10;99.90;;;;;;5000037;28;20254;-67
2022/10/06 03:49:06;;;;;;;3.75;0.93;;;13.00;99.90;;;;;;5000452;28;20198;-67
2022/10/06 03:51:38;;;;;;;4.22;1.17;;;13.00;99.90;;;;;;4983530;28;20186;-67
2022/10/06 03:54:04;;;;;;;4.05;1.15;;;13.10;99.90;;;;;;5014827;28;20183;-67
2022/10/06 03:56:35;;;;;;;1.27;1.10;;;13.00;99.90;;;;;;5005210;28;20265;-67
2022/10/06 03:59:04;;;;;;;6.03;1.23;;;13.00;99.90;;;;;;5015230;28;20245;-67
2022/10/06 04:01:36;;;;;;;5.63;1.35;;;13.00;99.90;;;;;;5003975;28;20692;-67
2022/10/06 04:04:03;;;;;;;8.82;1.73;;;12.90;99.90;;;;;;5018533;28;20190;-66
2022/10/06 04:06:33;;;;;;;2.00;0.93;;;12.90;99.90;;;;;;4984230;28;20187;-67
2022/10/06 04:08:59;;;;;;;4.80;1.58;;;12.80;99.90;;;;;;5012559;28;20191;-66
2022/10/06 04:11:27;;;;;;;6.38;1.20;;;12.90;99.90;;;;;;4995356;28;20278;-66
2022/10/06 04:14:02;;;;;;;6.72;0.93;;;12.80;99.90;;;;;;4998634;28;20184;-66
2022/10/06 04:16:29;;;;;;;9.45;2.33;;;12.70;99.90;;;;;;4999451;28;20317;-67
2022/10/06 04:19:00;;;;;;;5.35;1.30;;;12.80;99.90;;;;;;4995471;28;20179;-66
2022/10/06 04:21:28;;;;;;;7.72;1.73;;;12.80;99.90;;;;;;5017668;28;20203;-66
2022/10/06 04:23:56;;;;;;;5.78;1.30;;;12.80;99.90;;;;;;5010645;28;20217;-66
2022/10/06 04:26:23;;;;;;;5.25;1.38;;;12.80;99.90;;;;;;5000083;28;20274;-66
2022/10/06 04:28:49;;;;;;;4.13;1.08;;;12.70;99.90;;;;;;5008101;28;20209;-66
2022/10/06 04:31:27;;;;;;;6.63;2.28;;;12.70;99.90;;;;;;5012527;28;20188;-66
2022/10/06 04:33:55;;;;;;;9.23;1.40;;;12.70;99.90;;;;;;5009504;28;20261;-66
2022/10/06 04:36:23;;;;;;;5.90;1.38;;;12.70;99.90;;;;;;5017580;28;20183;-67
2022/10/06 04:38:55;;;;;;;6.97;1.45;;;12.70;99.90;;;;;;5013488;28;20206;-67
2022/10/06 04:41:22;;;;;;;6.15;1.58;;;12.60;99.90;;;;;;5007906;28;20610;-67
2022/10/06 04:43:49;;;;;;;6.15;2.55;;;12.60;99.90;;;;;;5012102;28;20179;-67
2022/10/06 04:46:16;;;;;;;6.88;1.35;;;12.60;99.90;;;;;;5002690;28;20557;-66
2022/10/06 04:48:42;;;;;;;10.88;1.70;;;12.50;99.90;;;;;;5006022;28;20730;-66
2022/10/06 04:51:13;;;;;;;8.60;1.42;;;12.50;99.90;;;;;;4995770;28;20195;-67
2022/10/06 04:53:39;;;;;;;5.57;1.15;;;12.50;99.90;;;;;;5011310;28;20520;-67
2022/10/06 04:56:11;;;;;;;5.85;1.45;;;12.50;99.90;;;;;;5005863;28;20183;-66
2022/10/06 04:58:39;;;;;;;4.95;1.55;;;12.40;99.90;;;;;;5007158;28;20680;-67
2022/10/06 05:01:13;;;;;;;1.08;0.85;;;12.40;99.90;;;;;;5001109;28;20278;-66
2022/10/06 05:03:39;;;;;;;7.03;1.25;;;12.40;99.90;;;;;;5014338;28;20190;-67
2022/10/06 05:06:07;;;;;;;8.27;1.10;;;12.40;99.90;;;;;;4985031;28;20192;-67
2022/10/06 05:08:34;;;;;;;6.60;1.67;;;12.40;99.90;;;;;;4995137;28;20679;-68
2022/10/06 05:11:05;;;;;;;7.65;2.15;;;12.40;99.90;;;;;;5004111;28;20369;-66
2022/10/06 05:13:31;;;;;;;1.50;0.95;;;12.30;99.90;;;;;;5007355;28;20180;-66
2022/10/06 05:16:01;;;;;;;3.03;0.88;;;12.30;99.90;;;;;;4977635;28;20204;-66
2022/10/06 05:18:29;;;;;;;3.53;1.33;;;12.30;99.90;;;;;;5010398;28;20562;-66
2022/10/06 05:21:19;;;;;;;7.38;1.83;;;12.30;99.90;;;;;;4979863;28;20180;-66
2022/10/06 05:23:45;;;;;;;13.35;2.63;;;12.30;99.90;;;;;;5004882;28;20200;-67
2022/10/06 05:26:13;;;;;;;8.00;1.02;;;12.30;99.90;;;;;;5002253;28;20219;-67
2022/10/06 05:28:39;;;;;;;2.60;1.27;;;12.40;99.90;;;;;;5002734;28;20208;-66
2022/10/06 05:31:42;;;;;;;3.75;1.70;;;12.40;99.90;;;;;;4986408;28;20194;-66
2022/10/06 05:34:08;;;;;;;4.32;1.35;;;12.30;99.90;;;;;;5004333;28;20660;-66
2022/10/06 05:36:34;;;;;;;14.15;1.85;;;12.30;99.90;;;;;;4974096;28;20250;-67
2022/10/06 05:39:00;;;;;;;6.82;1.17;;;12.30;99.90;;;;;;4997510;28;20187;-66
2022/10/06 05:41:30;;;;;;;1.33;0.98;;;12.20;99.90;;;;;;5006700;28;20194;-66
2022/10/06 05:43:57;;;;;;;9.90;1.95;;;12.00;99.90;;;;;;4995445;28;20220;-66
2022/10/06 05:46:29;;;;;;;7.68;1.20;;;12.00;99.90;;;;;;5004327;28;20203;-66
2022/10/06 05:48:57;;;;;;;3.83;1.10;;;12.00;99.90;;;;;;5007606;28;20273;-67
2022/10/06 05:51:28;;;;;;;3.17;1.50;;;12.10;99.90;;;;;;4991546;28;20507;-66
2022/10/06 05:53:54;;;;;;;5.63;1.52;;;12.10;99.90;;;;;;5000491;28;20593;-67
2022/10/06 05:56:25;;;;;;;4.93;1.10;;;11.90;99.90;;;;;;5012128;28;20190;-67
2022/10/06 05:58:53;;;;;;;10.45;1.83;;;11.90;99.90;;;;;;5008728;28;20195;-67
2022/10/06 06:01:25;;;;;;;4.88;1.17;;;11.90;99.90;;;;;;5007222;28;20644;-68
2022/10/06 06:04:03;;;;;;;6.55;1.13;;;11.90;99.90;;;;;;4986415;28;20207;-67
2022/10/06 06:06:40;;;;;;;5.60;1.38;;;12.00;99.90;;;;;;4995016;28;20179;-66
2022/10/06 06:09:06;;;;;;;4.68;2.03;;;12.00;99.90;;;;;;4994626;28;20646;-66
2022/10/06 06:11:35;;;;;;;6.15;1.88;;;12.10;99.90;;;;;;5005034;28;20216;-65
2022/10/06 06:14:06;;;;;;;8.07;1.67;;;12.10;99.90;;;;;;5008712;28;20188;-67
2022/10/06 06:16:32;;;;;;;5.57;1.92;;;12.10;99.90;;;;;;5007885;28;20187;-69
2022/10/06 06:18:59;;;;;;;6.32;1.42;;;12.20;99.90;;;;;;5002675;28;20223;-66
2022/10/06 06:21:26;;;;;;;9.57;1.65;;;12.20;99.90;;;;;;4992750;28;20242;-66
2022/10/06 06:23:52;;;;;;;6.55;1.67;;;12.30;99.90;;;;;;4975976;28;20196;-66
2022/10/06 06:26:25;;;;;;;5.55;1.73;;;12.30;99.90;;;;;;5004284;28;20195;-66
2022/10/06 06:28:53;;;;;;;6.03;1.83;;;12.20;99.90;;;;;;4994756;28;20290;-66
2022/10/06 06:31:25;;;;;;;7.47;1.35;;;12.30;99.90;;;;;;4995635;28;20183;-66
2022/10/06 06:33:53;;;;;;;4.90;1.67;;;12.20;99.90;;;;;;5003757;28;20266;-66
2022/10/06 06:36:25;;;;;;;6.82;1.55;;;12.30;99.90;;;;;;4994406;28;20599;-65
2022/10/06 06:38:55;;;;;;;10.57;1.83;;;12.40;99.90;;;;;;5012150;28;20274;-70
2022/10/06 06:41:22;;;;;;;6.25;1.27;;;12.40;99.90;;;;;;5000816;28;20176;-66
2022/10/06 06:43:49;;;;;;;7.28;1.30;;;12.50;99.90;;;;;;5008778;28;20183;-68
2022/10/06 06:46:17;;;;;;;3.72;2.42;;;12.60;99.90;;;;;;5001369;28;20253;-67
2022/10/06 06:48:44;;;;;;;5.15;1.50;;;12.50;99.90;;;;;;4994868;28;20229;-66
2022/10/06 06:51:13;;;;;;;3.45;1.45;;;12.60;99.90;;;;;;5009101;28;20696;-64
2022/10/06 06:53:40;;;;;;;4.00;1.02;;;12.50;99.90;;;;;;4989852;28;21041;-66
2022/10/06 06:56:07;;;;;;;4.57;1.85;;;12.40;99.90;;;;;;5001739;28;20180;-66
2022/10/06 06:58:36;;;;;;;8.60;1.60;;;12.70;99.90;;;;;;4993375;28;20652;-68
2022/10/06 07:01:12;;;;;;;3.60;1.50;;;13.70;99.90;;;;;;5007683;28;20194;-66
2022/10/06 07:03:41;;;;;;;11.35;2.17;;;15.10;99.90;;;;;;4976254;28;20188;-66
2022/10/06 07:06:09;;;;;;;7.82;1.15;;;16.30;99.90;;;;;;5002387;28;20241;-66
2022/10/06 07:08:44;;;;;;;5.13;1.52;;;17.50;99.90;;;;;;5006127;28;21195;-67
2022/10/06 07:11:15;;;;;;;7.13;1.55;;;18.50;99.90;;;;;;5004292;28;20182;-67
2022/10/06 07:13:41;;;;;;;13.07;2.28;;;19.20;99.90;;;;;;5007204;28;20594;-67
2022/10/06 07:27:10;;;;;;;5.05;2.20;;;21.40;99.90;;;;;;4992819;28;20640;-67
2022/10/06 07:29:36;;;;;;;8.40;2.17;;;21.50;99.90;;;;;;4985378;28;20270;-68
2022/10/06 07:32:02;;;;;;;2.63;0.95;;;21.90;99.90;;;;;;5008461;28;20619;-67
2022/10/06 07:34:31;;;;;;;4.38;1.98;;;22.30;99.90;;;;;;4968142;28;20183;-69
2022/10/06 07:36:56;;;;;;;7.20;1.05;;;22.40;99.90;;;;;;4993388;28;20222;-70
2022/10/06 07:39:22;;;;;;;5.13;1.50;;;22.50;99.90;;;;;;4993618;28;20656;-69
2022/10/06 07:41:48;;;;;;;3.33;1.33;;;22.90;99.90;;;;;;4990327;28;20229;-69
2022/10/06 07:44:17;;;;;;;4.75;0.70;;;22.60;99.90;;;;;;4979082;28;20187;-69
2022/10/06 07:46:42;;;;;;;3.67;1.27;;;22.90;99.90;;;;;;4976087;28;20188;-68
2022/10/06 07:49:09;;;;;;;7.30;1.08;;;23.00;99.90;;;;;;4961901;28;20262;-68
2022/10/06 07:51:34;;;;;;;2.88;1.48;;;23.30;99.90;;;;;;4995417;28;20180;-69
2022/10/06 07:54:01;;;;;;;4.85;1.20;;;23.40;99.90;;;;;;4966362;28;20283;-68
2022/10/06 07:56:30;;;;;;;4.63;0.73;;;23.70;99.90;;;;;;4993954;28;20515;-69
2022/10/06 07:58:57;;;;;;;4.35;0.85;;;23.80;99.90;;;;;;4993615;28;20726;-69
2022/10/06 08:01:25;;;;;;;5.80;1.08;;;24.00;99.90;;;;;;4990191;28;20256;-69
2022/10/06 08:03:51;;;;;;;2.42;1.05;;;24.50;99.90;;;;;;4992823;28;20200;-69
2022/10/06 08:06:18;;;;;;;9.32;1.88;;;24.30;99.90;;;;;;4998967;28;20239;-69
2022/10/06 08:08:45;;;;;;;5.28;1.40;;;24.30;99.90;;;;;;4974437;28;20216;-69
2022/10/06 08:11:12;;;;;;;6.75;0.88;;;23.90;99.90;;;;;;5002203;28;20214;-69
2022/10/06 08:13:41;;;;;;;2.92;0.90;;;22.70;99.90;;;;;;5011035;28;20211;-69
2022/10/06 08:16:18;;;;;;;4.30;1.55;;;21.40;99.90;;;;;;4990664;28;20649;-70
2022/10/06 08:18:53;;;;;;;2.40;1.95;;;20.50;99.90;;;;;;5006302;28;20188;-69
2022/10/06 08:21:28;;;;;;;2.47;0.70;;;19.90;99.90;;;;;;4998695;28;20657;-68
2022/10/06 08:23:55;;;;;;;2.78;0.80;;;19.30;99.90;;;;;;5006686;28;20178;-69
2022/10/06 08:26:23;;;;;;;5.47;1.40;;;18.60;99.90;;;;;;5007307;28;20188;-69
2022/10/06 08:28:51;;;;;;;5.60;0.82;;;18.10;99.90;;;;;;4996972;28;20213;-69
2022/10/06 08:31:19;;;;;;;8.65;2.60;;;17.70;99.90;;;;;;5005400;28;20195;-69
2022/10/06 08:33:46;;;;;;;6.30;2.28;;;17.40;99.90;;;;;;4998724;28;20645;-69
2022/10/06 08:36:18;;;;;;;11.00;1.75;;;17.20;99.90;;;;;;5000880;28;20196;-68
2022/10/06 08:38:49;;;;;;;3.15;1.63;;;17.10;99.90;;;;;;4998213;28;20665;-68
2022/10/06 08:41:33;;;;;;;4.07;1.73;;;17.00;99.90;;;;;;4987680;28;20266;-68
2022/10/06 08:44:04;;;;;;;4.18;1.80;;;16.90;99.90;;;;;;4998649;28;20180;-68
2022/10/06 08:46:49;;;;;;;3.72;1.27;;;16.80;99.90;;;;;;4997779;28;20502;-68
2022/10/06 08:49:18;;;;;;;4.93;1.33;;;16.70;99.90;;;;;;4995206;28;20230;-68
2022/10/06 08:52:22;;;;;;;3.63;1.23;;;16.60;99.90;;;;;;4997660;28;20270;-68
2022/10/06 08:55:00;;;;;;;7.95;1.40;;;16.60;99.90;;;;;;5002449;28;20540;-67
2022/10/06 08:58:00;;;;;;;10.02;2.05;;;16.50;99.90;;;;;;4993793;28;20227;-68
2022/10/06 09:00:31;;;;;;;11.07;2.17;;;16.50;99.90;;;;;;4995923;28;20198;-67
2022/10/06 09:02:58;;;;;;;4.78;1.15;;;16.50;99.90;;;;;;4997476;28;20195;-67
2022/10/06 09:05:27;;;;;;;6.13;1.50;;;16.70;99.90;;;;;;4978379;28;20719;-68
2022/10/06 09:08:17;;;;;;;5.53;1.30;;;16.60;99.90;;;;;;5003894;28;20636;-68
2022/10/06 09:10:48;;;;;;;2.65;0.85;;;16.70;99.90;;;;;;4998513;28;20180;-68
2022/10/06 09:13:29;;;;;;;5.35;1.25;;;16.80;99.90;;;;;;5000506;28;20763;-68
2022/10/06 09:16:00;;;;;;;5.88;2.08;;;16.70;99.90;;;;;;5003873;28;20206;-68
2022/10/06 09:18:48;;;;;;;3.90;1.20;;;16.70;99.90;;;;;;4999979;28;20188;-68
2022/10/06 09:21:38;;;;;;;5.03;1.48;;;16.70;99.90;;;;;;4992957;28;20254;-68
2022/10/06 09:24:11;;;;;;;2.53;0.90;;;16.60;99.90;;;;;;5010533;28;20195;-68
2022/10/06 09:26:44;;;;;;;5.43;1.02;;;16.60;99.90;;;;;;5001742;28;20629;-68
2022/10/06 09:29:11;;;;;;;5.72;1.85;;;16.70;99.90;;;;;;5001232;28;20179;-68
2022/10/06 09:31:40;;;;;;;3.72;0.88;;;16.70;99.90;;;;;;4984434;28;20267;-68
2022/10/06 09:34:34;;;;;;;1.77;0.93;;;16.90;99.90;;;;;;4996899;28;20645;-68
2022/10/06 09:37:04;;;;;;;5.70;1.08;;;16.70;99.90;;;;;;4984419;28;20198;-69
2022/10/06 09:39:35;;;;;;;2.67;0.70;;;16.60;99.90;;;;;;4995238;28;20176;-68
2022/10/06 09:42:21;;;;;;;4.05;0.95;;;16.60;99.90;;;;;;5008674;28;20195;-68
2022/10/06 09:44:57;;;;;;;6.78;1.42;;;16.70;99.90;;;;;;4995032;28;20656;-68
2022/10/06 09:47:32;;;;;;;6.97;2.15;;;16.60;99.90;;;;;;5010034;28;20230;-68
2022/10/06 09:50:03;;;;;;;7.93;1.50;;;16.60;99.90;;;;;;5001574;28;20461;-68
2022/10/06 09:52:29;;;;;;;4.43;1.60;;;16.60;99.90;;;;;;5002304;28;20261;-67
2022/10/06 09:55:27;;;;;;;4.63;0.95;;;16.60;99.90;;;;;;5005461;28;20187;-68
2022/10/06 09:57:56;;;;;;;6.00;1.65;;;16.70;99.90;;;;;;4981332;28;20258;-68
2022/10/06 10:00:30;;;;;;;5.50;1.13;;;16.70;99.90;;;;;;4996573;28;20266;-68
2022/10/06 10:02:57;;;;;;;8.02;2.95;;;16.80;99.90;;;;;;4994957;28;20182;-68
2022/10/06 10:05:23;;;;;;;6.32;1.08;;;16.80;99.90;;;;;;4998225;28;20669;-68
2022/10/06 10:08:01;;;;;;;2.65;1.20;;;16.90;99.90;;;;;;4987856;28;20219;-68
2022/10/06 10:10:27;;;;;;;1.60;0.68;;;16.80;99.90;;;;;;4990072;28;20187;-67
2022/10/06 10:12:59;;;;;;;3.70;1.00;;;16.60;99.90;;;;;;4979624;28;20187;-68
2022/10/06 10:15:32;;;;;;;3.20;1.98;;;16.60;99.90;;;;;;4999577;28;20187;-68
2022/10/06 10:18:10;;;;;;;2.05;1.90;;;16.60;99.90;;;;;;5002872;28;20258;-68
2022/10/06 10:20:49;;;;;;;1.92;0.80;;;16.70;99.90;;;;;;5005880;28;20215;-68
2022/10/06 10:23:28;;;;;;;0.80;0.40;;;16.90;99.90;;;;;;4989615;28;20225;-68
2022/10/06 10:26:08;;;;;;;2.17;0.95;;;16.90;99.90;;;;;;4993630;28;20195;-68
2022/10/06 10:28:36;;;;;;;2.15;1.00;;;16.90;99.90;;;;;;5003470;28;20584;-68
2022/10/06 10:31:19;;;;;;;4.78;1.27;;;17.00;99.90;;;;;;5004341;28;20179;-68
2022/10/06 10:34:01;;;;;;;4.85;1.23;;;17.10;99.90;;;;;;5002837;28;20180;-68
2022/10/06 10:37:03;;;;;;;4.57;1.15;;;17.10;99.90;;;;;;5002366;28;20230;-68
2022/10/06 10:39:38;;;;;;;5.68;1.00;;;17.10;99.90;;;;;;4992010;28;20682;-68
2022/10/06 10:42:36;;;;;;;1.42;1.33;;;17.20;99.90;;;;;;4999485;28;20660;-68
2022/10/06 10:45:08;;;;;;;4.78;0.85;;;17.30;99.90;;;;;;4965133;28;20200;-68
2022/10/06 10:47:37;;;;;;;8.00;1.42;;;17.30;99.90;;;;;;5002773;28;20230;-68
2022/10/06 10:50:26;;;;;;;4.75;1.00;;;17.30;99.90;;;;;;5005863;28;20184;-68
2022/10/06 10:53:03;;;;;;;2.60;0.55;;;17.50;99.90;;;;;;4965919;28;20188;-66
2022/10/06 10:55:44;;;;;;;3.33;1.05;;;17.40;99.90;;;;;;4991453;28;20187;-68
2022/10/06 10:58:19;;;;;;;1.02;0.70;;;17.50;99.90;;;;;;4997530;28;20634;-68
2022/10/06 11:00:48;;;;;;;1.63;0.88;;;17.50;99.90;;;;;;4988779;28;20182;-69
2022/10/06 11:03:14;;;;;;;2.20;0.47;;;17.40;99.90;;;;;;5008757;28;20726;-68
2022/10/06 11:05:57;;;;;;;2.00;0.60;;;17.50;99.90;;;;;;4977342;28;20270;-68
2022/10/06 11:08:41;;;;;;;3.50;0.57;;;17.60;99.90;;;;;;4995599;28;20300;-69
2022/10/06 11:11:17;;;;;;;3.33;0.70;;;17.60;99.90;;;;;;5003733;28;20587;-69
2022/10/06 11:13:49;;;;;;;4.00;0.95;;;17.70;99.90;;;;;;5001722;28;20652;-69
2022/10/06 11:16:25;;;;;;;3.35;0.77;;;17.70;99.90;;;;;;5011645;28;20206;-69
2022/10/06 11:19:02;;;;;;;7.88;1.05;;;17.90;99.90;;;;;;4998410;28;20194;-68
2022/10/06 11:21:30;;;;;;;2.05;1.50;;;17.90;99.90;;;;;;4994207;28;20180;-68
2022/10/06 11:24:14;;;;;;;4.55;1.13;;;17.80;99.90;;;;;;4994554;28;20274;-68
2022/10/06 11:26:55;;;;;;;6.80;2.85;;;17.80;99.90;;;;;;5001074;28;20184;-68
2022/10/06 11:29:53;;;;;;;8.50;2.47;;;17.90;99.90;;;;;;5000398;28;20187;-68
2022/10/06 11:32:37;;;;;;;8.38;1.92;;;17.80;99.90;;;;;;5007321;28;20232;-68
2022/10/06 11:35:16;;;;;;;2.50;0.98;;;17.60;99.90;;;;;;5005785;28;20184;-68
2022/10/06 11:37:52;;;;;;;3.10;0.80;;;17.60;99.90;;;;;;4998950;28;20191;-69
2022/10/06 11:41:12;;;;;;;3.10;1.20;;;17.70;99.90;;;;;;5012045;28;20182;-68
2022/10/06 11:43:53;;;;;;;2.00;0.70;;;17.80;99.90;;;;;;4988744;28;20199;-68
2022/10/06 11:46:19;;;;;;;0.70;0.70;;;18.00;99.90;;;;;;5000032;28;20219;-69
2022/10/06 11:48:45;;;;;;;6.93;1.52;;;18.10;99.90;;;;;;5007206;28;20304;-68
2022/10/06 11:51:23;;;;;;;3.65;2.40;;;17.90;99.90;;;;;;4982673;28;20303;-69
2022/10/06 11:53:50;;;;;;;4.03;0.70;;;17.90;99.90;;;;;;4996702;28;20266;-69
2022/10/06 11:56:15;;;;;;;1.27;0.50;;;17.90;99.90;;;;;;5012600;28;20188;-68
2022/10/06 11:58:50;;;;;;;1.73;0.70;;;18.00;99.90;;;;;;5012003;28;20800;-69
2022/10/06 12:01:32;;;;;;;0.77;0.50;;;18.10;99.90;;;;;;4996945;28;20194;-69
2022/10/06 12:04:07;;;;;;;4.15;0.70;;;18.00;99.90;;;;;;5003175;28;20198;-69
2022/10/06 12:06:42;;;;;;;5.25;1.13;;;18.00;99.90;;;;;;4992095;28;20191;-69
2022/10/06 12:09:32;;;;;;;2.65;0.63;;;18.10;99.90;;;;;;4990005;28;20205;-69
2022/10/06 12:12:24;;;;;;;3.20;1.10;;;18.00;99.90;;;;;;5003403;28;20199;-69
2022/10/06 12:15:11;;;;;;;2.83;1.15;;;18.00;99.90;;;;;;5004418;28;20195;-69
2022/10/06 12:17:46;;;;;;;4.47;1.33;;;18.10;99.90;;;;;;4996713;28;20211;-69
2022/10/06 12:20:47;;;;;;;0.90;0.68;;;18.20;99.90;;;;;;4994974;28;20183;-69
2022/10/06 12:23:21;;;;;;;1.30;0.43;;;18.20;99.90;;;;;;5002497;28;20664;-69
2022/10/06 12:26:22;;;;;;;0.52;0.52;;;18.40;99.90;;;;;;4994668;28;20187;-68
2022/10/06 12:29:25;;;;;;;2.88;0.70;;;18.50;99.90;;;;;;4995664;28;20346;-66
2022/10/06 12:32:11;;;;;;;6.15;1.20;;;18.40;99.90;;;;;;5014648;28;20183;-66
2022/10/06 12:34:43;;;;;;;3.78;2.40;;;18.20;99.90;;;;;;4979271;28;20230;-66
2022/10/06 12:38:03;;;;;;;5.18;1.20;;;18.10;99.90;;;;;;5004417;28;20286;-67
2022/10/06 12:40:46;;;;;;;3.38;0.60;;;18.10;99.90;;;;;;4985304;28;20184;-68
2022/10/06 12:43:21;;;;;;;11.73;1.83;;;18.20;99.90;;;;;;4997086;28;20234;-68
2022/10/06 12:46:14;;;;;;;2.90;1.30;;;18.20;99.90;;;;;;4994951;28;20182;-68
2022/10/06 12:48:59;;;;;;;4.10;1.40;;;18.20;99.90;;;;;;4985918;28;20698;-67
2022/10/06 12:51:37;;;;;;;3.33;1.23;;;18.30;99.90;;;;;;5000273;28;20229;-67
2022/10/06 12:54:33;;;;;;;3.58;1.40;;;18.10;99.90;;;;;;4996283;28;20196;-67
2022/10/06 12:57:01;;;;;;;3.08;0.80;;;18.10;99.90;;;;;;5013115;28;20547;-67
2022/10/06 12:59:28;;;;;;;7.05;0.80;;;18.10;99.90;;;;;;5009945;28;20241;-67
2022/10/06 13:02:06;;;;;;;9.57;1.25;;;18.10;99.90;;;;;;5013455;28;20648;-67
2022/10/06 13:04:44;;;;;;;4.20;0.98;;;18.10;99.90;;;;;;5013231;28;20179;-67
2022/10/06 13:07:28;;;;;;;4.63;0.70;;;18.20;99.90;;;;;;5005101;28;20215;-68
2022/10/06 13:10:12;;;;;;;2.70;0.40;;;18.30;99.90;;;;;;4998453;28;20183;-67
2022/10/06 13:12:39;;;;;;;0.85;0.30;;;18.40;99.90;;;;;;5005383;28;20184;-67
2022/10/06 13:15:14;;;;;;;5.20;0.75;;;18.40;99.90;;;;;;5008127;28;20192;-67
2022/10/06 13:17:45;;;;;;;1.60;0.85;;;18.30;99.90;;;;;;4991008;28;20188;-67
2022/10/06 13:20:52;;;;;;;0.63;0.40;;;18.30;99.90;;;;;;4995625;28;20192;-67